Time,TemperatureF,DewpointF,PressureIn,WindDirection,WindDirectionDegrees,WindSpeedMPH,WindSpeedGustMPH,Humidity,HourlyPrecipIn,Conditions,Clouds,dailyrainin,SoftwareType,DateUTC
2013-07-08 00:12:00,75.6,73.1,29.91,West,270,1.1,-999.0,92,-99.99,,,0.00,Acu-Link.com,2013-07-08 05:12:00,
2013-07-08 00:27:00,75.2,72.7,29.92,West,270,0.0,-999.0,92,-99.99,,,0.00,Acu-Link.com,2013-07-08 05:27:00,
2013-07-08 00:42:00,75.0,72.5,29.91,East,90,0.0,-999.0,92,-99.99,,,0.00,Acu-Link.com,2013-07-08 05:42:00,
2013-07-08 00:57:00,74.5,72.3,29.91,South,180,0.0,-999.0,93,-99.99,,,0.00,Acu-Link.com,2013-07-08 05:57:00,
2013-07-08 01:12:00,74.3,72.1,29.92,ESE,112,0.0,-999.0,93,-99.99,,,0.00,Acu-Link.com,2013-07-08 06:12:00,
2013-07-08 01:28:00,73.6,71.8,29.92,ESE,112,0.0,-999.0,94,-99.99,,,0.00,Acu-Link.com,2013-07-08 06:28:00,
2013-07-08 01:43:00,73.2,71.4,29.92,ESE,112,1.1,-999.0,94,-99.99,,,0.00,Acu-Link.com,2013-07-08 06:43:00,
2013-07-08 01:58:00,72.9,70.8,29.91,NNW,337,0.0,-999.0,93,-99.99,,,0.00,Acu-Link.com,2013-07-08 06:58:00,
2013-07-08 02:13:00,72.7,70.6,29.92,SSE,157,0.0,-999.0,93,-99.99,,,0.00,Acu-Link.com,2013-07-08 07:13:00,
2013-07-08 02:28:00,72.3,70.2,29.91,SSE,157,0.0,-999.0,93,-99.99,,,0.00,Acu-Link.com,2013-07-08 07:28:00,
2013-07-08 02:43:00,72.3,69.5,29.92,SSW,202,1.7,-999.0,91,-99.99,,,0.00,Acu-Link.com,2013-07-08 07:43:00,
2013-07-08 02:58:00,72.1,69.3,29.93,ESE,112,0.0,-999.0,91,-99.99,,,0.00,Acu-Link.com,2013-07-08 07:58:00,
2013-07-08 03:14:00,72.0,69.2,29.91,ESE,112,0.0,-999.0,91,-99.99,,,0.00,Acu-Link.com,2013-07-08 08:14:00,
2013-07-08 03:30:00,71.6,68.8,29.92,ESE,112,0.0,-999.0,91,-99.99,,,0.00,Acu-Link.com,2013-07-08 08:30:00,
2013-07-08 03:45:00,71.4,68.0,29.92,ESE,112,0.0,-999.0,89,-99.99,,,0.00,Acu-Link.com,2013-07-08 08:45:00,
2013-07-08 04:00:00,71.1,67.7,29.92,ESE,112,0.0,-999.0,89,-99.99,,,0.00,Acu-Link.com,2013-07-08 09:00:00,
2013-07-08 04:15:00,70.7,67.0,29.93,ESE,112,0.0,-999.0,88,-99.99,,,0.00,Acu-Link.com,2013-07-08 09:15:00,
2013-07-08 04:30:00,70.3,66.6,29.93,ESE,112,0.0,-999.0,88,-99.99,,,0.00,Acu-Link.com,2013-07-08 09:30:00,
2013-07-08 04:45:00,70.0,66.6,29.93,ESE,112,0.0,-999.0,89,-99.99,,,0.00,Acu-Link.com,2013-07-08 09:45:00,
2013-07-08 05:00:00,69.8,66.1,29.94,ESE,112,0.0,-999.0,88,-99.99,,,0.00,Acu-Link.com,2013-07-08 10:00:00,
2013-07-08 05:16:00,69.4,65.7,29.94,ESE,112,0.0,-999.0,88,-99.99,,,0.00,Acu-Link.com,2013-07-08 10:16:00,
2013-07-08 05:31:00,69.3,65.3,29.93,ESE,112,0.0,-999.0,87,-99.99,,,0.00,Acu-Link.com,2013-07-08 10:31:00,
2013-07-08 05:46:00,69.6,65.6,29.94,ESE,112,0.0,-999.0,87,-99.99,,,0.00,Acu-Link.com,2013-07-08 10:46:00,
2013-07-08 06:01:00,70.3,66.2,29.93,ESE,112,0.0,-999.0,87,-99.99,,,0.00,Acu-Link.com,2013-07-08 11:01:00,
2013-07-08 06:16:00,70.7,66.6,29.94,ESE,112,0.0,-999.0,87,-99.99,,,0.00,Acu-Link.com,2013-07-08 11:16:00,
2013-07-08 06:31:00,71.2,67.1,29.94,SE,135,0.0,-999.0,87,-99.99,,,0.00,Acu-Link.com,2013-07-08 11:31:00,
2013-07-08 06:46:00,71.6,67.5,29.94,South,180,0.0,-999.0,87,-99.99,,,0.00,Acu-Link.com,2013-07-08 11:46:00,
2013-07-08 07:02:00,72.5,68.4,29.95,East,90,0.0,-999.0,87,-99.99,,,0.00,Acu-Link.com,2013-07-08 12:02:00,
2013-07-08 07:17:00,73.0,68.9,29.95,SW,225,0.0,-999.0,87,-99.99,,,0.00,Acu-Link.com,2013-07-08 12:17:00,
2013-07-08 07:32:00,73.9,70.8,29.95,SSE,157,0.0,-999.0,90,-99.99,,,0.00,Acu-Link.com,2013-07-08 12:32:00,
2013-07-08 07:47:00,75.0,72.5,29.95,ESE,112,0.0,-999.0,92,-99.99,,,0.00,Acu-Link.com,2013-07-08 12:47:00,
2013-07-08 08:02:00,75.6,73.1,29.96,SSE,157,0.0,-999.0,92,-99.99,,,0.00,Acu-Link.com,2013-07-08 13:02:00,
2013-07-08 08:17:00,77.7,74.2,29.96,ESE,112,1.7,-999.0,89,-99.99,,,0.00,Acu-Link.com,2013-07-08 13:17:00,
2013-07-08 08:32:00,78.8,74.2,29.98,SSE,157,1.7,-999.0,86,-99.99,,,0.00,Acu-Link.com,2013-07-08 13:32:00,
2013-07-08 08:47:00,78.1,74.2,29.97,ESE,112,2.2,-999.0,88,-99.99,,,0.00,Acu-Link.com,2013-07-08 13:47:00,
2013-07-08 09:02:00,78.1,74.2,29.97,NE,45,2.7,-999.0,88,-99.99,,,0.00,Acu-Link.com,2013-07-08 14:02:00,
2013-07-08 09:17:00,79.5,74.9,29.97,ENE,67,3.7,-999.0,86,-99.99,,,0.00,Acu-Link.com,2013-07-08 14:17:00,
2013-07-08 09:33:00,80.6,75.3,29.97,ESE,112,1.7,-999.0,84,-99.99,,,0.00,Acu-Link.com,2013-07-08 14:33:00,
2013-07-08 09:48:00,81.7,76.0,29.98,SSE,157,2.2,-999.0,83,-99.99,,,0.00,Acu-Link.com,2013-07-08 14:48:00,
2013-07-08 10:03:00,82.9,76.8,29.98,SE,135,1.7,-999.0,82,-99.99,,,0.00,Acu-Link.com,2013-07-08 15:03:00,
2013-07-08 10:18:00,85.1,77.8,29.98,SSE,157,1.7,-999.0,79,-99.99,,,0.00,Acu-Link.com,2013-07-08 15:18:00,
2013-07-08 10:33:00,86.5,77.6,29.98,NE,45,2.2,-999.0,75,-99.99,,,0.00,Acu-Link.com,2013-07-08 15:33:00,
2013-07-08 10:48:00,87.3,77.6,29.99,East,90,2.7,-999.0,73,-99.99,,,0.00,Acu-Link.com,2013-07-08 15:48:00,
2013-07-08 11:03:00,84.4,76.8,29.98,South,180,1.7,-999.0,78,-99.99,,,0.00,Acu-Link.com,2013-07-08 16:03:00,
2013-07-08 11:18:00,83.8,76.2,29.99,ESE,112,2.2,-999.0,78,-99.99,,,0.00,Acu-Link.com,2013-07-08 16:18:00,
2013-07-08 11:33:00,87.1,77.4,29.98,ENE,67,3.2,-999.0,73,-99.99,,,0.00,Acu-Link.com,2013-07-08 16:33:00,
2013-07-08 11:49:00,87.4,76.8,29.99,South,180,2.7,-999.0,71,-99.99,,,0.00,Acu-Link.com,2013-07-08 16:49:00,
2013-07-08 12:04:00,88.7,77.2,29.98,SSE,157,2.2,-999.0,69,-99.99,,,0.00,Acu-Link.com,2013-07-08 17:04:00,
2013-07-08 12:19:00,89.1,78.0,29.98,WSW,247,3.2,-999.0,70,-99.99,,,0.00,Acu-Link.com,2013-07-08 17:19:00,
2013-07-08 12:34:00,89.4,77.0,29.98,East,90,3.7,-999.0,67,-99.99,,,0.00,Acu-Link.com,2013-07-08 17:34:00,
2013-07-08 12:49:00,90.5,77.6,29.98,ESE,112,2.2,-999.0,66,-99.99,,,0.00,Acu-Link.com,2013-07-08 17:49:00,
2013-07-08 13:04:00,90.5,77.1,29.98,SSE,157,2.7,-999.0,65,-99.99,,,0.00,Acu-Link.com,2013-07-08 18:04:00,
2013-07-08 13:34:00,87.8,75.9,29.96,East,90,2.2,-999.0,68,-99.99,,,0.00,Acu-Link.com,2013-07-08 18:34:00,
2013-07-08 13:49:00,89.4,76.1,29.96,ESE,112,1.1,-999.0,65,-99.99,,,0.00,Acu-Link.com,2013-07-08 18:49:00,
2013-07-08 14:05:00,91.0,75.1,29.95,SE,135,2.2,-999.0,60,-99.99,,,0.00,Acu-Link.com,2013-07-08 19:05:00,
2013-07-08 14:20:00,90.0,76.6,29.95,SSE,157,3.2,-999.0,65,-99.99,,,0.00,Acu-Link.com,2013-07-08 19:20:00,
2013-07-08 14:50:00,89.1,75.3,29.95,SE,135,1.1,-999.0,64,-99.99,,,0.00,Acu-Link.com,2013-07-08 19:50:00,
2013-07-08 15:20:00,91.6,75.2,29.92,SSE,157,0.0,-999.0,59,-99.99,,,0.00,Acu-Link.com,2013-07-08 20:20:00,
2013-07-08 15:36:00,92.8,75.3,29.93,NNE,22,2.7,-999.0,57,-99.99,,,0.00,Acu-Link.com,2013-07-08 20:36:00,
2013-07-08 16:37:00,92.3,73.2,29.91,South,180,2.7,-999.0,54,-99.99,,,0.00,Acu-Link.com,2013-07-08 21:37:00,
2013-07-08 16:52:00,92.3,74.3,29.90,SE,135,2.2,-999.0,56,-99.99,,,0.00,Acu-Link.com,2013-07-08 21:52:00,
2013-07-08 17:07:00,91.9,74.4,29.90,NW,315,2.7,-999.0,57,-99.99,,,0.00,Acu-Link.com,2013-07-08 22:07:00,
2013-07-08 17:52:00,94.3,72.8,29.90,SSE,157,2.2,-999.0,50,-99.99,,,0.00,Acu-Link.com,2013-07-08 22:52:00,
2013-07-08 18:22:00,95.0,73.4,29.90,ESE,112,0.0,-999.0,50,-99.99,,,0.00,Acu-Link.com,2013-07-08 23:22:00,
2013-07-08 18:37:00,93.6,73.3,29.89,ESE,112,0.0,-999.0,52,-99.99,,,0.00,Acu-Link.com,2013-07-08 23:37:00,
2013-07-08 18:53:00,93.0,72.7,29.90,SSE,157,2.2,-999.0,52,-99.99,,,0.00,Acu-Link.com,2013-07-08 23:53:00,
2013-07-08 19:08:00,90.3,73.5,29.89,SSE,157,1.7,-999.0,58,-99.99,,,0.00,Acu-Link.com,2013-07-09 00:08:00,
2013-07-08 19:23:00,88.5,72.8,29.89,East,90,2.2,-999.0,60,-99.99,,,0.00,Acu-Link.com,2013-07-09 00:23:00,
2013-07-08 19:38:00,86.9,73.2,29.90,SSE,157,1.1,-999.0,64,-99.99,,,0.00,Acu-Link.com,2013-07-09 00:38:00,
2013-07-08 20:08:00,84.6,73.3,29.91,SE,135,0.0,-999.0,69,-99.99,,,0.00,Acu-Link.com,2013-07-09 01:08:00,
2013-07-08 20:23:00,83.3,74.1,29.90,East,90,0.0,-999.0,74,-99.99,,,0.00,Acu-Link.com,2013-07-09 01:23:00,
2013-07-08 20:38:00,82.6,74.2,29.91,SE,135,0.0,-999.0,76,-99.99,,,0.00,Acu-Link.com,2013-07-09 01:38:00,
2013-07-08 20:54:00,82.0,74.4,29.91,ESE,112,0.0,-999.0,78,-99.99,,,0.00,Acu-Link.com,2013-07-09 01:54:00,
2013-07-08 21:09:00,81.3,74.5,29.90,ESE,112,0.0,-999.0,80,-99.99,,,0.00,Acu-Link.com,2013-07-09 02:09:00,
2013-07-08 21:39:00,80.4,74.0,29.91,ESE,112,0.0,-999.0,81,-99.99,,,0.00,Acu-Link.com,2013-07-09 02:39:00,
2013-07-08 21:54:00,79.7,74.1,29.92,ESE,112,0.0,-999.0,83,-99.99,,,0.00,Acu-Link.com,2013-07-09 02:54:00,
2013-07-08 22:10:00,79.2,75.0,29.93,ESE,112,0.0,-999.0,87,-99.99,,,0.00,Acu-Link.com,2013-07-09 03:10:00,
2013-07-08 22:40:00,77.4,74.9,29.94,ESE,112,0.0,-999.0,92,-99.99,,,0.00,Acu-Link.com,2013-07-09 03:40:00,
2013-07-08 23:10:00,76.3,74.1,29.94,ESE,112,0.0,-999.0,93,-99.99,,,0.00,Acu-Link.com,2013-07-09 04:10:00,
2013-07-08 23:25:00,76.3,74.1,29.93,ESE,112,0.0,-999.0,93,-99.99,,,0.00,Acu-Link.com,2013-07-09 04:25:00,
2013-07-08 23:41:00,76.5,74.3,29.94,ESE,112,0.0,-999.0,93,-99.99,,,0.00,Acu-Link.com,2013-07-09 04:41:00,
2013-07-08 23:56:00,76.1,73.9,29.94,ESE,112,0.0,-999.0,93,-99.99,,,0.00,Acu-Link.com,2013-07-09 04:56:00,